Time;durP1;ratioP1;P1;durP2;ratioP2;P2;SDS_P1;SDS_P2;PMS_P1;PMS_P2;Temp;Humidity;BMP_temperature;BMP_pressure;BME280_temperature;BME280_humidity;BME280_pressure;Samples;Min_cycle;Max_cycle;Signal;HPM_P1;HPM_P2
2023/04/21 00:00:07;;;;;;;;;;;18.50;56.00;;;;;;6152222;29;19915;-69
2023/04/21 00:03:08;;;;;;;;;;;18.50;56.00;;;;;;6152539;29;19917;-69
2023/04/21 00:06:08;;;;;;;;;;;18.50;56.00;;;;;;6151789;29;19950;-69
2023/04/21 00:09:10;;;;;;;;;;;18.50;56.00;;;;;;6151965;28;20337;-69
2023/04/21 00:12:10;;;;;;;;;;;18.50;56.00;;;;;;6145741;29;19993;-70
2023/04/21 00:15:11;;;;;;;;;;;18.50;56.00;;;;;;6151344;29;19934;-69
2023/04/21 00:18:13;;;;;;;;;;;18.50;55.90;;;;;;6134435;29;20604;-69
2023/04/21 00:21:13;;;;;;;;;;;18.50;56.00;;;;;;6151900;29;19914;-69
2023/04/21 00:24:14;;;;;;;;;;;18.50;56.00;;;;;;6134343;29;19915;-70
2023/04/21 00:27:15;;;;;;;;;;;18.50;56.00;;;;;;6151833;29;20005;-69
2023/04/21 00:30:15;;;;;;;;;;;18.50;56.00;;;;;;6151716;29;19910;-69
2023/04/21 00:33:16;;;;;;;;;;;18.50;56.00;;;;;;6134302;29;19914;-70
2023/04/21 00:36:16;;;;;;;;;;;18.50;56.60;;;;;;6150385;29;19918;-69
2023/04/21 00:39:17;;;;;;;;;;;18.50;56.00;;;;;;6151483;29;19969;-69
2023/04/21 00:42:17;;;;;;;;;;;18.50;56.00;;;;;;6146777;29;19910;-69
2023/04/21 00:45:18;;;;;;;;;;;18.50;56.00;;;;;;6150974;28;20016;-69
2023/04/21 00:48:18;;;;;;;;;;;18.50;56.00;;;;;;6151157;29;19918;-69
2023/04/21 00:51:19;;;;;;;;;;;18.50;56.00;;;;;;6150981;29;19962;-69
2023/04/21 00:54:22;;;;;;;;;;;18.50;56.00;;;;;;6150983;29;19918;-69
2023/04/21 00:57:24;;;;;;;;;;;18.50;56.00;;;;;;6150947;29;19958;-69
2023/04/21 01:00:24;;;;;;;;;;;18.50;56.00;;;;;;6148508;29;19921;-69
2023/04/21 01:03:25;;;;;;;;;;;18.50;56.00;;;;;;6150888;29;19910;-70
2023/04/21 01:06:31;;;;;;;;;;;18.50;56.00;;;;;;6164424;28;19910;-69
2023/04/21 01:09:32;;;;;;;;;;;18.50;56.00;;;;;;6148884;28;19922;-70
2023/04/21 01:12:34;;;;;;;;;;;18.50;56.00;;;;;;6144603;29;19910;-70
2023/04/21 01:15:35;;;;;;;;;;;18.50;56.00;;;;;;6150001;28;19911;-69
2023/04/21 01:18:35;;;;;;;;;;;18.50;56.00;;;;;;6133086;29;19937;-69
2023/04/21 01:21:40;;;;;;;;;;;18.50;56.00;;;;;;6150294;29;20298;-69
2023/04/21 01:24:44;;;;;;;;;;;18.50;56.00;;;;;;6165066;28;19910;-69
2023/04/21 01:27:45;;;;;;;;;;;18.50;56.00;;;;;;6143768;29;19969;-70
2023/04/21 01:30:46;;;;;;;;;;;18.50;56.00;;;;;;6132825;29;20373;-69
2023/04/21 01:33:46;;;;;;;;;;;18.50;56.00;;;;;;6149782;29;20030;-69
2023/04/21 01:36:47;;;;;;;;;;;18.50;56.00;;;;;;6145367;29;19915;-70
2023/04/21 01:39:53;;;;;;;;;;;18.50;56.00;;;;;;6149908;29;19969;-70
2023/04/21 01:42:54;;;;;;;;;;;18.50;56.00;;;;;;6149882;29;19915;-69
2023/04/21 01:45:55;;;;;;;;;;;18.50;56.00;;;;;;6149678;29;19945;-70
2023/04/21 01:48:55;;;;;;;;;;;18.50;56.00;;;;;;6149547;29;20340;-71
2023/04/21 01:51:56;;;;;;;;;;;18.50;56.00;;;;;;6149648;29;19917;-69
2023/04/21 01:54:56;;;;;;;;;;;18.50;56.00;;;;;;6149726;29;19918;-69
2023/04/21 01:57:58;;;;;;;;;;;18.50;56.00;;;;;;6164299;28;19922;-69
2023/04/21 02:00:58;;;;;;;;;;;18.50;56.00;;;;;;6147803;29;20383;-70
2023/04/21 02:03:59;;;;;;;;;;;18.50;56.00;;;;;;6149113;29;19914;-69
2023/04/21 02:06:59;;;;;;;;;;;18.50;56.00;;;;;;6149579;28;19918;-69
2023/04/21 02:10:00;;;;;;;;;;;18.50;56.00;;;;;;6149080;28;20413;-69
2023/04/21 02:13:01;;;;;;;;;;;18.50;56.00;;;;;;6142725;29;19964;-69
2023/04/21 02:16:01;;;;;;;;;;;18.50;56.00;;;;;;6148672;28;20547;-69
2023/04/21 02:19:02;;;;;;;;;;;18.50;56.00;;;;;;6148703;28;20294;-70
2023/04/21 02:22:02;;;;;;;;;;;18.50;56.00;;;;;;6148369;29;19911;-69
2023/04/21 02:25:04;;;;;;;;;;;18.50;56.00;;;;;;6148583;28;19917;-70
2023/04/21 02:28:04;;;;;;;;;;;18.50;56.00;;;;;;6131585;29;19917;-69
2023/04/21 02:31:05;;;;;;;;;;;18.50;56.00;;;;;;6131454;29;19911;-69
2023/04/21 02:34:05;;;;;;;;;;;18.50;56.00;;;;;;6148230;29;19918;-70
2023/04/21 02:37:06;;;;;;;;;;;18.50;56.00;;;;;;6124124;29;20224;-69
2023/04/21 02:40:08;;;;;;;;;;;18.50;56.00;;;;;;6148498;29;20337;-70
2023/04/21 02:43:08;;;;;;;;;;;18.50;56.00;;;;;;6133480;29;20293;-69
2023/04/21 02:46:09;;;;;;;;;;;18.50;56.00;;;;;;6124208;29;19911;-70
2023/04/21 02:49:10;;;;;;;;;;;18.50;56.00;;;;;;6107217;29;20314;-69
2023/04/21 02:52:10;;;;;;;;;;;18.50;56.00;;;;;;6125639;29;20262;-69
2023/04/21 02:55:11;;;;;;;;;;;18.50;56.00;;;;;;6130589;29;20293;-69
2023/04/21 02:58:11;;;;;;;;;;;18.50;56.00;;;;;;6147864;29;19922;-69
2023/04/21 03:01:12;;;;;;;;;;;18.50;56.00;;;;;;6148009;29;20458;-69
2023/04/21 03:04:13;;;;;;;;;;;18.50;55.90;;;;;;6145601;28;19915;-70
2023/04/21 03:07:13;;;;;;;;;;;18.50;56.00;;;;;;6130382;29;19911;-69
2023/04/21 03:10:14;;;;;;;;;;;18.50;56.00;;;;;;6162242;28;19922;-69
2023/04/21 03:13:15;;;;;;;;;;;18.50;56.00;;;;;;6141516;29;19914;-69
2023/04/21 03:16:16;;;;;;;;;;;18.50;56.00;;;;;;6147245;28;19910;-69
2023/04/21 03:19:17;;;;;;;;;;;18.50;56.00;;;;;;6147673;29;19925;-69
2023/04/21 03:22:17;;;;;;;;;;;18.50;56.00;;;;;;6130250;29;19914;-70
2023/04/21 03:25:18;;;;;;;;;;;18.50;56.00;;;;;;6147369;29;19953;-69
2023/04/21 03:28:18;;;;;;;;;;;18.50;56.00;;;;;;6130301;29;19996;-70
2023/04/21 03:31:19;;;;;;;;;;;18.50;56.00;;;;;;6161498;28;19965;-69
2023/04/21 03:34:20;;;;;;;;;;;18.50;56.00;;;;;;6148047;28;19914;-71
2023/04/21 03:37:20;;;;;;;;;;;18.50;56.00;;;;;;6146905;29;19914;-69
2023/04/21 03:40:21;;;;;;;;;;;18.50;56.00;;;;;;6147152;29;19922;-70
2023/04/21 03:43:21;;;;;;;;;;;18.50;56.00;;;;;;6142383;29;19962;-69
2023/04/21 03:46:22;;;;;;;;;;;18.50;56.00;;;;;;6147180;28;19914;-69
2023/04/21 03:49:22;;;;;;;;;;;18.50;56.00;;;;;;6125299;29;19910;-69
2023/04/21 03:52:23;;;;;;;;;;;18.50;56.00;;;;;;6146844;29;20270;-69
2023/04/21 03:55:24;;;;;;;;;;;18.50;56.00;;;;;;6146547;29;19918;-70
2023/04/21 03:58:24;;;;;;;;;;;18.50;56.00;;;;;;6144322;29;19914;-70
2023/04/21 04:01:25;;;;;;;;;;;18.50;56.00;;;;;;6129558;29;20392;-69
2023/04/21 04:04:25;;;;;;;;;;;18.50;56.00;;;;;;6146789;28;20315;-69
2023/04/21 04:07:26;;;;;;;;;;;18.50;56.00;;;;;;6129418;29;19949;-69
2023/04/21 04:10:26;;;;;;;;;;;18.50;56.00;;;;;;6146861;29;19972;-69
2023/04/21 04:13:28;;;;;;;;;;;18.50;56.00;;;;;;6124964;29;19941;-69
2023/04/21 04:16:28;;;;;;;;;;;18.50;56.00;;;;;;6129203;29;20572;-69
2023/04/21 04:19:32;;;;;;;;;;;18.50;56.00;;;;;;6146704;29;19919;-70
2023/04/21 04:22:33;;;;;;;;;;;18.50;56.00;;;;;;6147095;29;19918;-69
2023/04/21 04:25:33;;;;;;;;;;;18.50;56.00;;;;;;6141887;28;20497;-70
2023/04/21 04:28:34;;;;;;;;;;;18.50;56.00;;;;;;6146629;29;19946;-70
2023/04/21 04:31:35;;;;;;;;;;;18.50;56.00;;;;;;6118306;29;19915;-70
2023/04/21 04:34:36;;;;;;;;;;;18.50;56.00;;;;;;6152085;28;20296;-70
2023/04/21 04:37:37;;;;;;;;;;;18.50;56.00;;;;;;6145798;29;20427;-70
2023/04/21 04:40:37;;;;;;;;;;;18.50;55.90;;;;;;6147376;28;20034;-70
2023/04/21 04:43:38;;;;;;;;;;;18.50;55.90;;;;;;6150073;29;19911;-70
2023/04/21 04:46:39;;;;;;;;;;;18.50;55.90;;;;;;6148632;28;19910;-70
2023/04/21 04:49:40;;;;;;;;;;;18.50;56.00;;;;;;6130767;29;20368;-71
2023/04/21 04:52:41;;;;;;;;;;;18.50;55.90;;;;;;6150112;29;19917;-70
2023/04/21 04:55:41;;;;;;;;;;;18.50;55.90;;;;;;6150030;28;19918;-70
2023/04/21 04:58:45;;;;;;;;;;;18.50;56.00;;;;;;6140668;29;19914;-70
2023/04/21 05:01:45;;;;;;;;;;;18.50;56.00;;;;;;6155623;28;19910;-70
2023/04/21 05:04:46;;;;;;;;;;;18.50;56.00;;;;;;6132645;28;19910;-70
2023/04/21 05:07:47;;;;;;;;;;;18.50;56.00;;;;;;6149594;29;19922;-70
2023/04/21 05:10:54;;;;;;;;;;;18.50;55.90;;;;;;6131147;29;19997;-70
2023/04/21 05:13:55;;;;;;;;;;;18.50;56.00;;;;;;6149053;29;19911;-70
2023/04/21 05:17:15;;;;;;;;;;;18.50;56.00;;;;;;6132600;29;19918;-70
2023/04/21 05:20:16;;;;;;;;;;;18.50;56.00;;;;;;6126563;29;19939;-71
2023/04/21 05:23:17;;;;;;;;;;;18.50;56.00;;;;;;6141906;29;19966;-71
2023/04/21 05:26:17;;;;;;;;;;;18.50;56.00;;;;;;6149377;29;19957;-71
2023/04/21 05:29:18;;;;;;;;;;;18.50;56.00;;;;;;6137652;29;20451;-71
2023/04/21 05:32:18;;;;;;;;;;;18.50;56.00;;;;;;6149606;29;19954;-71
2023/04/21 05:35:19;;;;;;;;;;;18.50;56.00;;;;;;6144538;28;20001;-70
2023/04/21 05:38:19;;;;;;;;;;;18.50;55.90;;;;;;6141277;29;19992;-70
2023/04/21 05:41:21;;;;;;;;;;;18.50;56.00;;;;;;6145475;29;19919;-71
2023/04/21 05:44:22;;;;;;;;;;;18.50;56.00;;;;;;6148986;29;19918;-70
2023/04/21 05:47:22;;;;;;;;;;;18.50;56.00;;;;;;6148722;29;19910;-71
2023/04/21 05:50:25;;;;;;;;;;;18.50;56.00;;;;;;6143893;29;19918;-71
2023/04/21 05:53:27;;;;;;;;;;;18.50;56.00;;;;;;6130664;29;20002;-71
2023/04/21 05:56:28;;;;;;;;;;;18.50;55.90;;;;;;6148562;28;19993;-70
2023/04/21 05:59:28;;;;;;;;;;;18.50;56.00;;;;;;6141699;29;20024;-71
2023/04/21 06:02:29;;;;;;;;;;;18.50;56.00;;;;;;6149353;29;19921;-70
2023/04/21 06:05:30;;;;;;;;;;;18.50;56.00;;;;;;6132910;29;19914;-70
2023/04/21 06:08:30;;;;;;;;;;;18.50;56.00;;;;;;6147373;28;19961;-70
2023/04/21 06:11:32;;;;;;;;;;;18.50;56.00;;;;;;6146441;29;19917;-70
2023/04/21 06:14:32;;;;;;;;;;;18.50;56.00;;;;;;6148388;28;19914;-70
2023/04/21 06:17:33;;;;;;;;;;;18.50;56.00;;;;;;6149598;29;19910;-70
2023/04/21 06:20:33;;;;;;;;;;;18.50;56.00;;;;;;6144323;29;19914;-71
2023/04/21 06:23:34;;;;;;;;;;;18.50;56.00;;;;;;6148114;29;19911;-70
2023/04/21 06:26:34;;;;;;;;;;;18.50;56.00;;;;;;6148260;28;19914;-70
2023/04/21 06:29:35;;;;;;;;;;;18.50;56.00;;;;;;6143067;29;19926;-71
2023/04/21 06:32:36;;;;;;;;;;;18.50;56.00;;;;;;6149956;29;19923;-70
2023/04/21 06:35:36;;;;;;;;;;;18.50;56.00;;;;;;6141240;29;19918;-70
2023/04/21 06:38:38;;;;;;;;;;;18.50;56.00;;;;;;6149496;29;20613;-70
2023/04/21 06:41:39;;;;;;;;;;;18.50;56.00;;;;;;6126691;29;19910;-70
2023/04/21 06:44:39;;;;;;;;;;;18.50;56.00;;;;;;6145228;29;19911;-70
2023/04/21 06:47:40;;;;;;;;;;;18.50;56.00;;;;;;6148536;29;20270;-70
2023/04/21 06:50:43;;;;;;;;;;;18.50;55.90;;;;;;6145735;28;19911;-70
2023/04/21 06:53:43;;;;;;;;;;;18.50;55.90;;;;;;6149275;29;19911;-70
2023/04/21 06:56:44;;;;;;;;;;;18.50;55.90;;;;;;6148765;28;19911;-70
2023/04/21 06:59:44;;;;;;;;;;;18.50;56.00;;;;;;6143065;29;19962;-70
2023/04/21 07:02:45;;;;;;;;;;;18.50;55.90;;;;;;6132499;29;19924;-70
2023/04/21 07:05:46;;;;;;;;;;;18.50;56.00;;;;;;6138391;28;19915;-70
2023/04/21 07:08:47;;;;;;;;;;;18.50;56.00;;;;;;6145575;29;19980;-70
2023/04/21 07:11:58;;;;;;;;;;;18.50;56.00;;;;;;6130004;29;20329;-70
2023/04/21 07:18:39;;;;;;;;;;;18.50;56.00;;;;;;6125416;29;20382;-70
2023/04/21 07:21:39;;;;;;;;;;;18.50;55.90;;;;;;6124624;29;20321;-69
2023/04/21 07:24:40;;;;;;;;;;;18.50;56.00;;;;;;6146630;28;19981;-70
2023/04/21 07:27:41;;;;;;;;;;;18.50;55.90;;;;;;6106051;29;19999;-69
2023/04/21 07:30:42;;;;;;;;;;;18.50;55.90;;;;;;6130883;29;19970;-69
2023/04/21 07:33:47;;;;;;;;;;;18.50;55.90;;;;;;6136271;29;20440;-70
2023/04/21 07:36:49;;;;;;;;;;;18.50;56.00;;;;;;6148714;29;19911;-69
2023/04/21 07:39:51;;;;;;;;;;;18.50;56.00;;;;;;6160931;28;20004;-69
2023/04/21 07:42:52;;;;;;;;;;;18.50;55.90;;;;;;6149218;29;19914;-69
2023/04/21 07:45:53;;;;;;;;;;;18.50;56.00;;;;;;6142033;28;19937;-69
2023/04/21 07:48:53;;;;;;;;;;;18.50;56.00;;;;;;6147993;29;19965;-69
2023/04/21 07:51:54;;;;;;;;;;;18.50;56.00;;;;;;6148758;29;19921;-72
2023/04/21 07:54:55;;;;;;;;;;;18.50;55.90;;;;;;6148416;28;19917;-70
2023/04/21 07:57:56;;;;;;;;;;;18.50;56.00;;;;;;6130706;29;19988;-70
2023/04/21 08:00:57;;;;;;;;;;;18.50;55.90;;;;;;6148352;29;19930;-70
2023/04/21 08:03:58;;;;;;;;;;;18.50;56.00;;;;;;6144141;29;19914;-70
2023/04/21 08:07:00;;;;;;;;;;;18.50;55.90;;;;;;6141874;28;19911;-71
2023/04/21 08:10:01;;;;;;;;;;;18.50;56.00;;;;;;6127693;29;19931;-70
2023/04/21 08:13:05;;;;;;;;;;;18.50;55.90;;;;;;6140123;29;20183;-70
2023/04/21 08:16:06;;;;;;;;;;;18.50;56.00;;;;;;6132810;29;19918;-70
2023/04/21 08:19:08;;;;;;;;;;;18.50;56.00;;;;;;6146554;29;19915;-70
2023/04/21 08:22:08;;;;;;;;;;;18.50;56.00;;;;;;6154022;29;19925;-70
2023/04/21 08:25:12;;;;;;;;;;;18.50;56.00;;;;;;6145851;28;19911;-70
2023/04/21 08:28:14;;;;;;;;;;;18.50;56.00;;;;;;6154058;29;19911;-70
2023/04/21 08:31:15;;;;;;;;;;;18.50;56.00;;;;;;6153572;29;19911;-69
2023/04/21 08:34:15;;;;;;;;;;;18.50;56.00;;;;;;6154568;28;20401;-70
2023/04/21 08:37:17;;;;;;;;;;;18.50;56.70;;;;;;6146850;29;19918;-69
2023/04/21 08:40:18;;;;;;;;;;;18.50;56.00;;;;;;6153146;29;19923;-70
2023/04/21 08:43:20;;;;;;;;;;;18.50;56.00;;;;;;6153307;29;19917;-69
2023/04/21 08:46:27;;;;;;;;;;;18.50;56.00;;;;;;6153139;29;19915;-70
2023/04/21 08:49:36;;;;;;;;;;;18.50;56.00;;;;;;6139223;29;19911;-70
2023/04/21 08:52:38;;;;;;;;;;;18.50;56.00;;;;;;6138219;29;20373;-70
2023/04/21 08:55:39;;;;;;;;;;;18.50;56.00;;;;;;6152987;29;19911;-70
2023/04/21 08:58:41;;;;;;;;;;;18.50;56.00;;;;;;6152600;29;19966;-70
2023/04/21 09:02:06;;;;;;;;;;;18.50;56.00;;;;;;6152028;29;20362;-70
2023/04/21 09:05:08;;;;;;;;;;;18.50;56.00;;;;;;6140342;28;19988;-70
2023/04/21 09:08:10;;;;;;;;;;;18.50;56.00;;;;;;6152198;29;19922;-70
2023/04/21 09:11:13;;;;;;;;;;;18.50;56.00;;;;;;6152627;29;19938;-70
2023/04/21 09:14:18;;;;;;;;;;;18.50;56.00;;;;;;6135195;29;19918;-69
2023/04/21 09:17:21;;;;;;;;;;;18.50;56.00;;;;;;6134830;29;20333;-70
2023/04/21 09:20:23;;;;;;;;;;;18.50;56.00;;;;;;6126805;29;19915;-70
2023/04/21 09:23:24;;;;;;;;;;;18.50;56.00;;;;;;6139739;29;20008;-69
2023/04/21 09:26:52;;;;;;;;;;;18.50;56.00;;;;;;6152170;28;19911;-70
2023/04/21 09:29:53;;;;;;;;;;;18.50;56.00;;;;;;6148679;29;19953;-70
2023/04/21 09:32:57;;;;;;;;;;;18.50;56.00;;;;;;6151989;29;19917;-70
2023/04/21 09:36:01;;;;;;;;;;;18.50;56.00;;;;;;6134305;29;19918;-70
2023/04/21 09:39:03;;;;;;;;;;;18.50;56.00;;;;;;6151590;29;19914;-70
2023/04/21 09:42:06;;;;;;;;;;;18.50;56.00;;;;;;6151964;29;19977;-70
2023/04/21 09:45:08;;;;;;;;;;;18.50;56.00;;;;;;6151468;29;19911;-69
2023/04/21 09:48:12;;;;;;;;;;;18.50;56.00;;;;;;6146612;29;20001;-69
2023/04/21 09:51:14;;;;;;;;;;;18.50;56.00;;;;;;6151418;29;20258;-69
2023/04/21 09:54:31;;;;;;;;;;;18.50;56.00;;;;;;6151457;29;20342;-70
2023/04/21 09:57:35;;;;;;;;;;;18.50;56.00;;;;;;6151479;29;19911;-70
2023/04/21 10:00:38;;;;;;;;;;;18.50;56.00;;;;;;6150549;29;20420;-69
2023/04/21 10:03:41;;;;;;;;;;;18.50;56.00;;;;;;6151804;29;19917;-69
2023/04/21 10:06:42;;;;;;;;;;;18.50;56.00;;;;;;6150399;28;19962;-69
2023/04/21 10:09:56;;;;;;;;;;;18.50;56.00;;;;;;6150425;28;19923;-69
2023/04/21 10:12:58;;;;;;;;;;;18.50;56.00;;;;;;6152128;29;19949;-70
2023/04/21 10:16:06;;;;;;;;;;;18.50;56.00;;;;;;6151916;28;19910;-70
2023/04/21 10:19:39;;;;;;;;;;;18.50;56.00;;;;;;6144597;29;20153;-69
2023/04/21 10:22:41;;;;;;;;;;;18.50;56.00;;;;;;6132892;29;20297;-69
2023/04/21 10:25:42;;;;;;;;;;;18.50;56.00;;;;;;6151775;28;19938;-70
2023/04/21 10:28:46;;;;;;;;;;;18.50;56.00;;;;;;6151573;29;20309;-70
2023/04/21 10:31:51;;;;;;;;;;;18.50;56.00;;;;;;6150248;29;19922;-70
2023/04/21 10:34:51;;;;;;;;;;;18.50;56.00;;;;;;6151506;28;19910;-69
2023/04/21 10:37:52;;;;;;;;;;;18.50;56.00;;;;;;6151576;29;19918;-69
2023/04/21 10:40:53;;;;;;;;;;;18.50;56.10;;;;;;6133830;29;19914;-69
2023/04/21 10:43:56;;;;;;;;;;;18.50;56.00;;;;;;6134098;29;19921;-70
2023/04/21 10:46:57;;;;;;;;;;;18.50;56.00;;;;;;6151145;28;20384;-70
2023/04/21 10:49:59;;;;;;;;;;;18.50;56.00;;;;;;6151188;29;19915;-69
2023/04/21 10:53:12;;;;;;;;;;;18.50;56.00;;;;;;6151185;29;20374;-69
2023/04/21 10:56:12;;;;;;;;;;;18.50;56.00;;;;;;6144598;28;19910;-69
2023/04/21 10:59:15;;;;;;;;;;;18.50;56.00;;;;;;6133627;29;19921;-69
2023/04/21 11:02:16;;;;;;;;;;;18.50;56.00;;;;;;6150805;29;20001;-70
2023/04/21 11:05:17;;;;;;;;;;;18.50;56.00;;;;;;6150816;28;19914;-69
2023/04/21 11:08:17;;;;;;;;;;;18.50;56.00;;;;;;6149191;29;20321;-70
2023/04/21 11:11:22;;;;;;;;;;;18.50;56.00;;;;;;6151086;29;20285;-70
2023/04/21 11:14:23;;;;;;;;;;;18.50;56.00;;;;;;6150250;28;19910;-69
2023/04/21 11:17:24;;;;;;;;;;;18.50;56.00;;;;;;6150591;29;19914;-69
2023/04/21 11:20:26;;;;;;;;;;;18.50;56.00;;;;;;6149838;29;20021;-69
2023/04/21 11:23:26;;;;;;;;;;;18.50;56.00;;;;;;6150646;29;20313;-69
2023/04/21 11:26:31;;;;;;;;;;;18.50;56.00;;;;;;6150403;28;19930;-69
2023/04/21 11:29:31;;;;;;;;;;;18.50;56.00;;;;;;6132817;29;19969;-69
2023/04/21 11:32:32;;;;;;;;;;;18.50;56.00;;;;;;6143961;29;20373;-69
2023/04/21 11:35:34;;;;;;;;;;;18.50;56.00;;;;;;6145007;29;19914;-69
2023/04/21 11:38:41;;;;;;;;;;;18.50;56.00;;;;;;6148629;29;19915;-69
2023/04/21 11:41:42;;;;;;;;;;;18.50;56.10;;;;;;6147520;29;19977;-69
2023/04/21 11:44:43;;;;;;;;;;;18.50;56.00;;;;;;6143517;29;19933;-69
2023/04/21 11:47:44;;;;;;;;;;;18.50;56.00;;;;;;6137917;29;19910;-69
2023/04/21 11:50:48;;;;;;;;;;;18.50;56.00;;;;;;6136961;28;19914;-69
2023/04/21 11:53:49;;;;;;;;;;;18.50;56.00;;;;;;6146260;29;19915;-69
2023/04/21 11:56:50;;;;;;;;;;;18.50;56.00;;;;;;6148224;28;19965;-70
2023/04/21 11:59:51;;;;;;;;;;;18.50;56.00;;;;;;6148021;29;20024;-69
2023/04/21 12:02:55;;;;;;;;;;;18.50;55.90;;;;;;6135419;29;20465;-69
2023/04/21 12:05:57;;;;;;;;;;;18.50;56.10;;;;;;6147378;29;19910;-70
2023/04/21 12:09:01;;;;;;;;;;;18.60;56.10;;;;;;6148097;29;19937;-70
2023/04/21 12:12:03;;;;;;;;;;;18.60;55.80;;;;;;6123371;29;19911;-69
2023/04/21 12:15:07;;;;;;;;;;;18.70;55.70;;;;;;6142918;29;19994;-70
2023/04/21 12:18:11;;;;;;;;;;;18.70;55.60;;;;;;6147837;29;19962;-69
2023/04/21 12:21:13;;;;;;;;;;;18.70;55.60;;;;;;6148015;29;19910;-69
2023/04/21 12:24:14;;;;;;;;;;;18.70;55.60;;;;;;6147471;29;19915;-69
2023/04/21 12:27:15;;;;;;;;;;;18.80;55.60;;;;;;6115913;29;19918;-70
2023/04/21 12:30:16;;;;;;;;;;;18.80;55.60;;;;;;6138878;28;19910;-69
2023/04/21 12:33:17;;;;;;;;;;;18.80;55.80;;;;;;6147832;29;19926;-70
2023/04/21 12:36:18;;;;;;;;;;;18.70;55.70;;;;;;6147223;29;19915;-69
2023/04/21 12:39:19;;;;;;;;;;;18.70;55.50;;;;;;6147981;29;19965;-69
2023/04/21 12:42:19;;;;;;;;;;;18.70;55.70;;;;;;6147917;29;19910;-69
2023/04/21 12:45:20;;;;;;;;;;;18.80;55.80;;;;;;6144534;29;20374;-69
2023/04/21 12:48:21;;;;;;;;;;;18.70;55.60;;;;;;6141878;29;19910;-69
2023/04/21 12:51:22;;;;;;;;;;;18.70;55.60;;;;;;6147996;29;19966;-69
2023/04/21 12:54:23;;;;;;;;;;;18.70;55.60;;;;;;6124284;29;19911;-69
2023/04/21 12:57:23;;;;;;;;;;;18.70;55.60;;;;;;6135437;29;19911;-69
2023/04/21 13:00:24;;;;;;;;;;;18.70;55.60;;;;;;6147779;29;19961;-69
2023/04/21 13:03:25;;;;;;;;;;;18.70;55.60;;;;;;6145526;28;20400;-70
2023/04/21 13:06:26;;;;;;;;;;;18.70;55.70;;;;;;6151874;28;19910;-70
2023/04/21 13:09:28;;;;;;;;;;;18.70;56.30;;;;;;6152029;28;19931;-70
2023/04/21 13:12:29;;;;;;;;;;;18.70;55.60;;;;;;6130558;29;19910;-69
2023/04/21 13:15:30;;;;;;;;;;;18.70;55.60;;;;;;6151171;28;20357;-69
2023/04/21 13:18:31;;;;;;;;;;;18.70;55.60;;;;;;6151587;29;19915;-69
2023/04/21 13:21:31;;;;;;;;;;;18.70;55.70;;;;;;6150974;29;20333;-69
2023/04/21 13:24:32;;;;;;;;;;;18.70;55.70;;;;;;6130524;29;19910;-69
2023/04/21 13:27:33;;;;;;;;;;;18.70;55.60;;;;;;6143649;29;19969;-69
2023/04/21 13:30:35;;;;;;;;;;;18.70;55.60;;;;;;6151622;29;20544;-70
2023/04/21 13:33:36;;;;;;;;;;;18.70;55.70;;;;;;6126205;29;19911;-69
2023/04/21 13:36:37;;;;;;;;;;;18.70;56.30;;;;;;6130582;29;19911;-69
2023/04/21 13:39:38;;;;;;;;;;;18.70;55.70;;;;;;6144850;29;19981;-70
2023/04/21 13:42:39;;;;;;;;;;;18.70;55.60;;;;;;6151256;29;19910;-69
2023/04/21 13:45:40;;;;;;;;;;;18.70;55.70;;;;;;6150969;29;19914;-70
2023/04/21 13:48:41;;;;;;;;;;;18.70;55.70;;;;;;6149970;29;20250;-70
2023/04/21 13:51:41;;;;;;;;;;;18.70;55.60;;;;;;6149718;29;20384;-69
2023/04/21 13:54:42;;;;;;;;;;;18.70;55.60;;;;;;6151167;29;19911;-69
2023/04/21 13:57:42;;;;;;;;;;;18.70;55.60;;;;;;6165378;28;19949;-69
2023/04/21 14:00:43;;;;;;;;;;;18.70;55.60;;;;;;6133351;29;19915;-69
2023/04/21 14:03:44;;;;;;;;;;;18.70;55.60;;;;;;6147547;29;20273;-69
2023/04/21 14:06:45;;;;;;;;;;;18.70;55.60;;;;;;6150160;29;19911;-69
2023/04/21 14:09:46;;;;;;;;;;;18.70;55.70;;;;;;6148956;29;19958;-70
2023/04/21 14:12:47;;;;;;;;;;;18.70;55.60;;;;;;6150441;28;19962;-68
2023/04/21 14:15:48;;;;;;;;;;;18.70;55.60;;;;;;6132544;29;19984;-69
2023/04/21 14:18:50;;;;;;;;;;;18.70;55.60;;;;;;6150073;29;19962;-69
2023/04/21 14:21:50;;;;;;;;;;;18.70;55.60;;;;;;6148463;29;20617;-69
2023/04/21 14:24:51;;;;;;;;;;;18.70;55.60;;;;;;6147816;28;19910;-69
2023/04/21 14:27:52;;;;;;;;;;;18.70;55.60;;;;;;6148822;29;19910;-70
2023/04/21 14:30:53;;;;;;;;;;;18.70;55.60;;;;;;6149928;29;19943;-70
2023/04/21 14:33:54;;;;;;;;;;;18.70;55.60;;;;;;6144411;29;19910;-70
2023/04/21 14:36:55;;;;;;;;;;;18.70;55.60;;;;;;6150099;29;19918;-69
2023/04/21 14:39:56;;;;;;;;;;;18.70;55.60;;;;;;6149466;29;20397;-70
2023/04/21 14:42:56;;;;;;;;;;;18.70;55.60;;;;;;6149401;29;19921;-69
2023/04/21 14:45:57;;;;;;;;;;;18.70;55.60;;;;;;6149370;29;20005;-70
2023/04/21 14:48:58;;;;;;;;;;;18.70;55.60;;;;;;6149029;29;19914;-70
2023/04/21 14:51:58;;;;;;;;;;;18.70;55.60;;;;;;6132398;29;20506;-69
2023/04/21 14:55:00;;;;;;;;;;;18.70;55.60;;;;;;6123781;29;19950;-69
2023/04/21 14:58:00;;;;;;;;;;;18.70;55.60;;;;;;6140087;29;19910;-69
2023/04/21 15:01:01;;;;;;;;;;;18.70;55.60;;;;;;6149031;29;20400;-69
2023/04/21 15:04:01;;;;;;;;;;;18.70;55.60;;;;;;6147842;29;19965;-70
2023/04/21 15:07:02;;;;;;;;;;;18.80;55.70;;;;;;6148703;28;19917;-70
2023/04/21 15:10:03;;;;;;;;;;;18.80;55.80;;;;;;6147099;28;19926;-70
2023/04/21 15:13:04;;;;;;;;;;;18.80;55.70;;;;;;6147559;29;20432;-69
2023/04/21 15:16:04;;;;;;;;;;;18.80;55.70;;;;;;6148202;29;20009;-70
2023/04/21 15:19:05;;;;;;;;;;;18.80;55.70;;;;;;6147524;29;20032;-70
2023/04/21 15:22:06;;;;;;;;;;;18.80;55.70;;;;;;6148635;29;20506;-69
2023/04/21 15:25:07;;;;;;;;;;;18.80;55.70;;;;;;6153321;28;20014;-70
2023/04/21 15:28:08;;;;;;;;;;;18.80;55.70;;;;;;6147352;29;20377;-70
2023/04/21 15:31:09;;;;;;;;;;;18.80;55.70;;;;;;6148384;29;20263;-70
2023/04/21 15:34:10;;;;;;;;;;;18.80;55.70;;;;;;6141103;29;19911;-70
2023/04/21 15:37:11;;;;;;;;;;;18.80;55.80;;;;;;6130616;29;19917;-70
2023/04/21 15:40:12;;;;;;;;;;;18.80;55.70;;;;;;6147242;29;19914;-69
2023/04/21 15:43:13;;;;;;;;;;;18.80;55.80;;;;;;6148202;29;19962;-70
2023/04/21 15:46:13;;;;;;;;;;;18.80;55.80;;;;;;6143637;28;19911;-70
2023/04/21 15:49:14;;;;;;;;;;;18.80;55.80;;;;;;6147777;29;19950;-69
2023/04/21 15:52:15;;;;;;;;;;;18.80;55.80;;;;;;6148733;29;19914;-69
2023/04/21 15:55:15;;;;;;;;;;;18.80;55.80;;;;;;6148042;29;20293;-69
2023/04/21 15:58:16;;;;;;;;;;;18.80;55.80;;;;;;6148598;29;19918;-70
2023/04/21 16:01:18;;;;;;;;;;;18.80;55.80;;;;;;6148908;29;19910;-70
2023/04/21 16:04:19;;;;;;;;;;;18.80;55.80;;;;;;6147305;29;19911;-69
2023/04/21 16:07:20;;;;;;;;;;;18.80;55.80;;;;;;6146642;29;19915;-70
2023/04/21 16:10:20;;;;;;;;;;;18.80;55.80;;;;;;6138615;29;19926;-70
2023/04/21 16:13:21;;;;;;;;;;;18.80;55.80;;;;;;6148157;29;19910;-69
2023/04/21 16:16:21;;;;;;;;;;;18.80;55.80;;;;;;6129249;29;19910;-70
2023/04/21 16:19:22;;;;;;;;;;;18.80;55.80;;;;;;6146390;29;19914;-69
2023/04/21 16:22:23;;;;;;;;;;;18.80;55.80;;;;;;6146824;29;19958;-70
2023/04/21 16:25:25;;;;;;;;;;;18.80;55.80;;;;;;6124642;29;20428;-69
2023/04/21 16:28:26;;;;;;;;;;;18.80;55.80;;;;;;6123235;29;20267;-70
2023/04/21 16:31:27;;;;;;;;;;;18.80;55.80;;;;;;6120700;29;19911;-70
2023/04/21 16:34:27;;;;;;;;;;;18.80;55.80;;;;;;6142558;28;20279;-70
2023/04/21 16:37:28;;;;;;;;;;;18.80;55.80;;;;;;6131498;29;19918;-70
2023/04/21 16:40:29;;;;;;;;;;;18.80;55.80;;;;;;6150975;29;19914;-70
2023/04/21 16:43:29;;;;;;;;;;;18.80;55.80;;;;;;6151400;29;19916;-70
2023/04/21 16:46:30;;;;;;;;;;;18.80;55.80;;;;;;6150039;28;19969;-70
2023/04/21 16:49:31;;;;;;;;;;;18.80;55.80;;;;;;6151085;29;20374;-70
2023/04/21 16:52:31;;;;;;;;;;;18.80;55.80;;;;;;6150884;29;19973;-70
2023/04/21 16:55:32;;;;;;;;;;;18.80;55.80;;;;;;6148697;29;19910;-70
2023/04/21 16:58:33;;;;;;;;;;;18.80;55.80;;;;;;6133537;29;19922;-70
2023/04/21 17:01:33;;;;;;;;;;;18.80;55.80;;;;;;6150455;29;19910;-70
2023/04/21 17:04:36;;;;;;;;;;;18.80;55.80;;;;;;6165147;28;19910;-70
2023/04/21 17:07:38;;;;;;;;;;;18.80;55.80;;;;;;6143092;28;19910;-70
2023/04/21 17:10:38;;;;;;;;;;;18.80;55.80;;;;;;6148746;29;19957;-70
2023/04/21 17:13:39;;;;;;;;;;;18.80;55.90;;;;;;6130264;29;19911;-70
2023/04/21 17:16:40;;;;;;;;;;;18.80;55.80;;;;;;6149158;28;19921;-70
2023/04/21 17:19:40;;;;;;;;;;;18.80;55.80;;;;;;6149318;29;19914;-70
2023/04/21 17:22:41;;;;;;;;;;;18.80;55.80;;;;;;6149931;29;20486;-71
2023/04/21 17:25:42;;;;;;;;;;;18.80;55.80;;;;;;6148045;28;20630;-71
2023/04/21 17:28:43;;;;;;;;;;;18.80;55.80;;;;;;6146841;29;19922;-70
2023/04/21 17:31:44;;;;;;;;;;;18.80;55.80;;;;;;6150402;29;19910;-72
2023/04/21 17:34:44;;;;;;;;;;;18.80;55.90;;;;;;6132999;28;19911;-70
2023/04/21 17:37:45;;;;;;;;;;;18.80;55.80;;;;;;6133124;29;20349;-70